Veterans Admin Fac, Alabama
Current Conditions -  °F | °C
As of 2:35 PM on Wednesday 26 Nov 2014 (Local Time) from KAUO Reporting Station
Clear Clear  
Wind Chill: 55°   Ceiling: Unl
Heat Index: 55°   Visibility: 10mi
Dew Point: 25°   Wind: 10mph
Humidity: 31%   Direction: 290°WNW
Pressure: 30.13"   Gusts: 16mph
Location:  32.4242°N, 85.6518°W
Report Text: KAUO 262035Z AUTO 29009G14KT 10SM CLR 13/M04 A3013 RMK AO1
Loading
Personal Weather Stations






























Interactive Weather Map New forecast layout! Learn more

10-Day Weather Forecast

Advertisements
Track Severe Weather on mobile